createdAt,value
2018-08-19T02:42:51.909Z,63.83
2018-08-19T02:45:20.075Z,63.86
2018-08-19T02:47:48.285Z,63.79
2018-08-19T02:50:16.538Z,63.91
2018-08-19T02:52:44.914Z,63.92
2018-08-19T02:55:13.148Z,64.12
2018-08-19T02:57:41.616Z,64.29
2018-08-19T03:00:11.387Z,64.11
2018-08-19T03:02:40.823Z,63.55
2018-08-19T03:05:10.243Z,63.35
2018-08-19T03:07:38.471Z,63.96
2018-08-19T03:10:12.806Z,64.00
2018-08-19T03:12:41.358Z,64.10
2018-08-19T03:15:10.736Z,64.14
2018-08-19T03:17:39.285Z,63.88
2018-08-19T03:20:09.918Z,63.91
2018-08-19T03:22:38.384Z,64.09
2018-08-19T03:25:07.085Z,63.86
2018-08-19T03:27:35.278Z,63.97
2018-08-19T03:30:04.986Z,64.41
2018-08-19T03:32:33.177Z,64.45
2018-08-19T03:35:19.368Z,64.84
2018-08-19T03:37:49.592Z,64.56
2018-08-19T03:40:17.725Z,65.14
2018-08-19T03:42:45.867Z,65.13
2018-08-19T03:45:18.454Z,65.57
2018-08-19T03:47:47.060Z,67.26
2018-08-19T03:50:21.177Z,66.43
2018-08-19T03:52:49.899Z,66.52
2018-08-19T03:55:25.635Z,66.14
2018-08-19T03:57:57.351Z,66.26
2018-08-19T04:00:25.687Z,66.55
2018-08-19T04:02:53.900Z,65.17
2018-08-19T04:05:39.788Z,64.72
2018-08-19T04:08:09.288Z,64.59
2018-08-19T04:10:38.550Z,64.43
2018-08-19T04:13:42.710Z,63.16
2018-08-19T04:16:11.748Z,62.43
2018-08-19T04:18:41.404Z,62.61
2018-08-19T04:21:10.763Z,62.79
2018-08-19T04:23:41.160Z,62.06
2018-08-19T04:26:09.477Z,61.77
2018-08-19T04:28:39.076Z,61.54
2018-08-19T04:31:13.504Z,61.11
2018-08-19T04:33:42.064Z,60.39
2018-08-19T04:36:12.043Z,60.26
2018-08-19T04:38:40.597Z,60.01
2018-08-19T04:41:08.924Z,58.96
2018-08-19T04:43:37.075Z,59.08
2018-08-19T04:46:05.423Z,57.22
2018-08-19T04:48:33.636Z,57.00
2018-08-19T04:51:01.798Z,55.84
2018-08-19T04:53:31.568Z,55.42
2018-08-19T04:56:00.225Z,55.23
2018-08-19T04:58:28.549Z,54.56
2018-08-19T05:00:56.829Z,54.63
2018-08-19T05:03:25.003Z,56.02
2018-08-19T05:05:53.383Z,55.33
2018-08-19T05:08:21.748Z,54.99
2018-08-19T05:10:49.858Z,55.29
2018-08-19T05:13:18.042Z,54.49
2018-08-19T05:15:46.237Z,55.24
2018-08-19T05:18:14.617Z,54.08
2018-08-19T05:20:42.765Z,54.49
2018-08-19T05:23:11.036Z,55.13
2018-08-19T05:25:44.461Z,54.81
2018-08-19T05:28:12.652Z,54.24
2018-08-19T05:30:40.790Z,53.74
2018-08-19T05:33:08.945Z,52.15
2018-08-19T05:35:37.153Z,51.28
2018-08-19T05:38:05.617Z,51.75
2018-08-19T05:40:33.683Z,52.04
2018-08-19T05:43:01.828Z,51.83
2018-08-19T05:45:30.141Z,52.50
2018-08-19T06:01:12.499Z,51.17
2018-08-19T06:03:40.601Z,50.61
2018-08-19T06:06:08.921Z,50.55
2018-08-19T06:08:37.079Z,50.25
2018-08-19T06:11:05.353Z,50.08
2018-08-19T06:13:33.557Z,50.29
2018-08-19T06:16:01.781Z,50.19
2018-08-19T06:18:30.030Z,49.38
2018-08-19T06:20:58.253Z,49.58
2018-08-19T06:23:26.431Z,49.59
2018-08-19T06:25:54.939Z,49.79
2018-08-19T06:28:23.113Z,49.42
2018-08-19T06:30:51.265Z,48.89
2018-08-19T06:33:19.436Z,48.68
2018-08-19T06:35:47.678Z,48.82
2018-08-19T06:38:15.797Z,47.98
2018-08-19T06:40:43.987Z,47.56
2018-08-19T06:43:12.223Z,48.00
2018-08-19T06:45:40.509Z,47.70
2018-08-19T06:48:09.004Z,47.24
2018-08-19T06:50:37.380Z,47.27
2018-08-19T06:53:05.673Z,46.93
2018-08-19T06:55:33.868Z,47.00
2018-08-19T06:58:02.273Z,46.97
2018-08-19T07:00:31.510Z,46.34
2018-08-19T07:03:02.872Z,46.16
2018-08-19T07:05:31.422Z,45.68
2018-08-19T07:07:59.574Z,45.08
2018-08-19T07:10:33.184Z,45.11
2018-08-19T07:13:09.480Z,100.00
2018-08-19T07:17:22.515Z,44.91
2018-08-19T07:19:50.877Z,44.12
2018-08-19T07:22:20.561Z,43.15
2018-08-19T07:24:48.942Z,43.27
2018-08-19T07:27:17.301Z,43.84
2018-08-19T07:29:45.608Z,43.78
2018-08-19T07:32:14.223Z,100.00
2018-08-19T07:34:42.393Z,100.00
2018-08-19T07:37:10.700Z,100.00
2018-08-19T07:39:45.639Z,100.00
2018-08-19T07:42:14.213Z,100.00
2018-08-19T07:44:42.349Z,100.00
2018-08-19T07:47:10.505Z,100.00
2018-08-19T07:49:38.681Z,100.00
2018-08-19T07:57:23.495Z,100.00
2018-08-19T07:59:52.163Z,100.00
2018-08-19T08:02:20.365Z,100.00
2018-08-19T08:04:48.551Z,100.00
2018-08-19T08:07:16.727Z,100.00
2018-08-19T08:09:44.930Z,100.00
2018-08-19T08:12:14.276Z,100.00
2018-08-19T08:14:48.136Z,100.00
2018-08-19T08:17:16.315Z,100.00
2018-08-19T08:19:49.837Z,100.00
2018-08-19T08:22:18.191Z,100.00
2018-08-19T08:32:08.362Z,100.00
2018-08-19T08:34:36.535Z,100.00
2018-08-19T08:37:06.109Z,89.29
2018-08-19T08:39:36.203Z,100.00
2018-08-19T08:42:04.920Z,100.00
2018-08-19T08:44:33.198Z,100.00
2018-08-19T08:47:05.983Z,100.00
2018-08-19T08:49:39.717Z,100.00
2018-08-19T08:52:14.573Z,100.00
2018-08-19T08:57:15.893Z,100.00
2018-08-19T08:59:44.211Z,100.00
2018-08-19T09:02:45.438Z,100.00
2018-08-19T09:09:55.953Z,100.00
2018-08-19T09:12:35.377Z,100.00
